Time;durP1;ratioP1;P1;durP2;ratioP2;P2;SDS_P1;SDS_P2;PMS_P1;PMS_P2;Temp;Humidity;BMP_temperature;BMP_pressure;BME280_temperature;BME280_humidity;BME280_pressure;Samples;Min_cycle;Max_cycle;Signal;HPM_P1;HPM_P2
2022/09/14 00:01:29;;;;;;;1.02;1.00;;;11.20;99.90;;;;;;5009202;28;20079;-74
2022/09/14 00:03:58;;;;;;;0.70;0.70;;;11.20;99.90;;;;;;5007456;28;20037;-74
2022/09/14 00:06:24;;;;;;;0.40;0.40;;;11.20;99.90;;;;;;5008777;28;20038;-74
2022/09/14 00:08:54;;;;;;;0.45;0.45;;;11.20;99.90;;;;;;5008745;28;20030;-74
2022/09/14 00:11:21;;;;;;;0.63;0.63;;;11.20;99.90;;;;;;5008913;28;20041;-74
2022/09/14 00:13:47;;;;;;;0.20;0.20;;;11.20;99.90;;;;;;5008794;28;20465;-74
2022/09/14 00:16:34;;;;;;;3.35;1.23;;;11.20;99.90;;;;;;5008713;28;20030;-74
2022/09/14 00:19:05;;;;;;;1.45;1.27;;;11.20;99.90;;;;;;5008871;28;20040;-75
2022/09/14 00:21:32;;;;;;;0.88;0.88;;;11.10;99.90;;;;;;5008920;28;20029;-75
2022/09/14 00:23:58;;;;;;;0.65;0.65;;;11.20;99.90;;;;;;5008659;28;20363;-75
2022/09/14 00:26:25;;;;;;;0.77;0.77;;;11.20;99.90;;;;;;5008545;28;20041;-75
2022/09/14 00:28:53;;;;;;;2.15;1.83;;;11.20;99.90;;;;;;5007417;28;20033;-75
2022/09/14 00:31:20;;;;;;;0.63;0.63;;;11.20;99.90;;;;;;5007333;28;20081;-75
2022/09/14 00:33:47;;;;;;;;;;;11.20;99.90;;;;;;5008994;28;20109;-75
2022/09/14 00:36:19;;;;;;;0.40;0.40;;;11.20;99.90;;;;;;5007043;28;19917;-75
2022/09/14 00:38:45;;;;;;;0.30;0.30;;;11.20;99.90;;;;;;5007431;28;20071;-75
2022/09/14 00:41:14;;;;;;;0.75;0.75;;;11.20;99.90;;;;;;5008783;28;20382;-75
2022/09/14 00:44:15;;;;;;;0.68;0.68;;;11.20;99.90;;;;;;5008248;28;20526;-74
2022/09/14 00:46:46;;;;;;;1.15;1.05;;;11.20;99.90;;;;;;5071373;28;20036;-75
2022/09/14 00:49:21;;;;;;;0.40;0.40;;;11.20;99.90;;;;;;5021952;28;20520;-75
2022/09/14 00:51:53;;;;;;;0.73;0.73;;;11.20;99.90;;;;;;5006904;28;20083;-75
2022/09/14 00:54:19;;;;;;;0.68;0.68;;;12.40;99.90;;;;;;5008397;28;20105;-75
2022/09/14 00:56:47;;;;;;;0.93;0.93;;;11.20;99.90;;;;;;5008231;28;20044;-74
2022/09/14 00:59:18;;;;;;;0.52;0.52;;;11.30;99.90;;;;;;5008254;28;20113;-74
2022/09/14 01:01:44;;;;;;;0.50;0.50;;;11.30;99.90;;;;;;5008256;28;20046;-75
2022/09/14 01:04:10;;;;;;;1.90;1.80;;;11.30;99.90;;;;;;5008097;28;20033;-74
2022/09/14 01:06:45;;;;;;;0.90;0.90;;;11.30;99.90;;;;;;5007958;28;20060;-75
2022/09/14 01:09:29;;;;;;;0.30;0.30;;;11.30;99.90;;;;;;5008097;28;20332;-75
2022/09/14 01:12:28;;;;;;;0.85;0.85;;;11.30;99.90;;;;;;5008299;28;20041;-75
2022/09/14 01:15:04;;;;;;;1.85;1.05;;;11.40;99.90;;;;;;5014046;28;20401;-76
2022/09/14 01:18:13;;;;;;;0.68;0.68;;;11.50;99.90;;;;;;5008362;28;20106;-74
2022/09/14 01:20:52;;;;;;;0.65;0.65;;;11.40;99.90;;;;;;5008924;28;20034;-74
2022/09/14 01:23:41;;;;;;;0.43;0.43;;;11.40;99.90;;;;;;5007951;28;20052;-75
2022/09/14 01:26:27;;;;;;;0.43;0.43;;;11.40;99.90;;;;;;5007924;28;20388;-75
2022/09/14 01:29:01;;;;;;;0.65;0.65;;;11.40;99.90;;;;;;5007898;28;20072;-75
2022/09/14 01:31:33;;;;;;;0.50;0.50;;;11.40;99.90;;;;;;5007532;28;20083;-75
2022/09/14 01:34:09;;;;;;;0.43;0.43;;;11.40;99.90;;;;;;5007731;28;20464;-74
2022/09/14 01:36:39;;;;;;;0.80;0.80;;;11.40;99.90;;;;;;5007752;28;20116;-75
2022/09/14 01:39:05;;;;;;;0.80;0.80;;;11.40;99.90;;;;;;5006193;28;20050;-75
2022/09/14 01:41:32;;;;;;;0.95;0.93;;;11.50;99.90;;;;;;5006290;28;20034;-75
2022/09/14 01:44:12;;;;;;;0.55;0.55;;;11.40;99.90;;;;;;5007363;28;20053;-75
2022/09/14 01:46:44;;;;;;;1.60;1.02;;;11.40;99.90;;;;;;5007648;28;20038;-74
2022/09/14 01:49:31;;;;;;;0.38;0.38;;;11.40;99.90;;;;;;5007196;28;20021;-74
2022/09/14 01:52:25;;;;;;;0.75;0.75;;;11.40;99.90;;;;;;5007673;28;20102;-74
2022/09/14 01:54:57;;;;;;;0.43;0.43;;;11.50;99.90;;;;;;5009499;28;20034;-75
2022/09/14 01:57:41;;;;;;;0.70;0.70;;;11.40;99.90;;;;;;5007941;28;20030;-75
2022/09/14 02:00:10;;;;;;;4.28;1.85;;;11.40;99.90;;;;;;5007470;28;20381;-75
2022/09/14 02:02:45;;;;;;;0.50;0.50;;;11.40;99.90;;;;;;5007593;28;20029;-75
2022/09/14 02:05:23;;;;;;;1.02;1.00;;;11.40;99.90;;;;;;5005866;28;20030;-74
2022/09/14 02:07:49;;;;;;;0.35;0.35;;;11.50;99.90;;;;;;5006596;28;20045;-75
2022/09/14 02:10:16;;;;;;;0.70;0.70;;;11.50;99.90;;;;;;5006870;28;20105;-75
2022/09/14 02:12:42;;;;;;;0.38;0.38;;;11.50;99.90;;;;;;5007434;28;20030;-75
2022/09/14 02:15:10;;;;;;;0.50;0.50;;;11.50;99.90;;;;;;5005863;28;20140;-74
2022/09/14 02:17:36;;;;;;;0.57;0.57;;;11.50;99.90;;;;;;5005654;28;20030;-74
2022/09/14 02:20:06;;;;;;;0.47;0.47;;;11.40;99.90;;;;;;5005621;28;20022;-74
2022/09/14 02:22:31;;;;;;;0.40;0.40;;;11.50;99.90;;;;;;5007378;28;20042;-74
2022/09/14 02:24:57;;;;;;;1.07;1.00;;;11.50;99.90;;;;;;5005784;28;20217;-74
2022/09/14 02:27:23;;;;;;;0.57;0.57;;;11.50;99.90;;;;;;5007515;28;20182;-74
2022/09/14 02:29:50;;;;;;;0.37;0.37;;;11.50;99.90;;;;;;5005705;28;20022;-74
2022/09/14 02:32:34;;;;;;;;;;;11.50;99.90;;;;;;5007239;28;20318;-74
2022/09/14 02:35:07;;;;;;;0.40;0.40;;;11.50;99.90;;;;;;5006814;28;19909;-74
2022/09/14 02:38:11;;;;;;;0.45;0.45;;;11.50;99.90;;;;;;5007049;28;20029;-73
2022/09/14 02:40:42;;;;;;;0.30;0.30;;;11.50;99.90;;;;;;5006752;28;20048;-74
2022/09/14 02:43:26;;;;;;;1.45;1.02;;;11.50;99.90;;;;;;5005431;28;20514;-74
2022/09/14 02:46:09;;;;;;;0.80;0.80;;;11.50;99.90;;;;;;5006496;28;20504;-73
2022/09/14 02:48:53;;;;;;;0.40;0.40;;;11.50;99.90;;;;;;5006847;28;20026;-73
2022/09/14 02:51:30;;;;;;;0.82;0.82;;;11.50;99.90;;;;;;5007015;28;20041;-74
2022/09/14 02:54:21;;;;;;;0.50;0.50;;;11.50;99.90;;;;;;5006748;28;20022;-74
2022/09/14 02:56:47;;;;;;;0.43;0.43;;;11.50;99.90;;;;;;5007302;28;20026;-74
2022/09/14 02:59:13;;;;;;;0.30;0.30;;;11.50;99.90;;;;;;5006672;28;20050;-74
2022/09/14 03:01:39;;;;;;;1.37;1.27;;;11.50;99.90;;;;;;5006732;28;20072;-74
2022/09/14 03:04:04;;;;;;;0.47;0.47;;;11.50;99.90;;;;;;5006396;28;20022;-73
2022/09/14 03:06:30;;;;;;;1.10;1.07;;;11.50;99.90;;;;;;5006465;28;20038;-74
2022/09/14 03:08:55;;;;;;;0.77;0.77;;;11.50;99.90;;;;;;5006284;28;20345;-74
2022/09/14 03:11:21;;;;;;;0.30;0.30;;;11.50;99.90;;;;;;5006482;28;20029;-74
2022/09/14 03:13:47;;;;;;;1.47;1.37;;;11.50;99.90;;;;;;5005082;28;20026;-74
2022/09/14 03:16:16;;;;;;;0.30;0.30;;;11.50;99.90;;;;;;5004938;28;20037;-74
2022/09/14 03:18:41;;;;;;;0.30;0.30;;;11.50;99.90;;;;;;5008109;28;20438;-74
2022/09/14 03:21:10;;;;;;;0.47;0.47;;;11.50;99.90;;;;;;5009839;28;20113;-74
2022/09/14 03:23:47;;;;;;;0.32;0.32;;;11.40;99.90;;;;;;5009781;28;20022;-75
2022/09/14 03:26:20;;;;;;;0.82;0.60;;;11.50;99.90;;;;;;5009730;28;20061;-73
2022/09/14 03:28:50;;;;;;;1.00;1.00;;;11.40;99.90;;;;;;5009555;28;20033;-74
2022/09/14 03:31:15;;;;;;;0.35;0.35;;;11.40;99.90;;;;;;5008242;28;20124;-73
2022/09/14 03:33:41;;;;;;;0.40;0.40;;;11.50;99.90;;;;;;5009371;28;20537;-74
2022/09/14 03:36:18;;;;;;;0.50;0.50;;;11.50;99.90;;;;;;5008134;28;20026;-74
2022/09/14 03:38:45;;;;;;;1.17;1.05;;;11.50;99.90;;;;;;5009321;28;20030;-74
2022/09/14 03:41:11;;;;;;;0.30;0.30;;;11.50;99.90;;;;;;5007892;28;20030;-75
2022/09/14 03:43:37;;;;;;;0.90;0.90;;;11.50;99.90;;;;;;5007751;28;20048;-75
2022/09/14 03:46:12;;;;;;;0.40;0.40;;;11.50;99.90;;;;;;5007958;28;20037;-74
2022/09/14 03:48:38;;;;;;;0.30;0.30;;;11.50;99.90;;;;;;5007732;28;20034;-73
2022/09/14 03:51:06;;;;;;;1.27;1.17;;;11.50;99.90;;;;;;5009147;28;20045;-74
2022/09/14 03:53:31;;;;;;;0.57;0.57;;;11.60;99.90;;;;;;5009222;28;20474;-74
2022/09/14 03:55:57;;;;;;;0.70;0.70;;;11.50;99.90;;;;;;5009091;28;20037;-74
2022/09/14 03:58:23;;;;;;;0.73;0.73;;;11.50;99.90;;;;;;5009376;28;20037;-75
2022/09/14 04:00:49;;;;;;;0.40;0.40;;;11.50;99.90;;;;;;5009076;28;20026;-75
2022/09/14 04:03:15;;;;;;;0.67;0.67;;;11.50;99.90;;;;;;5009062;28;20030;-74
2022/09/14 04:05:40;;;;;;;0.43;0.43;;;11.50;99.90;;;;;;5008856;28;20037;-74
2022/09/14 04:08:06;;;;;;;0.50;0.50;;;11.50;99.90;;;;;;5007572;28;20562;-74
2022/09/14 04:10:32;;;;;;;15.83;1.80;;;11.40;99.90;;;;;;5008655;28;20355;-74
2022/09/14 04:12:58;;;;;;;0.40;0.40;;;11.50;99.90;;;;;;5007391;28;20066;-74
2022/09/14 04:15:24;;;;;;;0.52;0.52;;;11.50;99.90;;;;;;5008669;28;20022;-74
2022/09/14 04:17:50;;;;;;;0.73;0.47;;;11.40;99.90;;;;;;5009106;28;20044;-74
2022/09/14 04:20:17;;;;;;;0.40;0.40;;;11.50;99.90;;;;;;5008598;28;20037;-74
2022/09/14 04:22:44;;;;;;;0.70;0.70;;;11.50;99.90;;;;;;5008936;28;20037;-74
2022/09/14 04:25:09;;;;;;;0.30;0.30;;;11.50;99.90;;;;;;5008612;28;20029;-74
2022/09/14 04:27:35;;;;;;;3.37;1.83;;;11.50;99.90;;;;;;5009102;28;20037;-74
2022/09/14 04:30:00;;;;;;;0.37;0.37;;;11.60;99.90;;;;;;5007690;28;20033;-74
2022/09/14 04:32:26;;;;;;;0.40;0.40;;;11.60;99.90;;;;;;5008951;28;20037;-74
2022/09/14 04:34:51;;;;;;;0.40;0.40;;;11.60;99.90;;;;;;5008543;28;20037;-75
2022/09/14 04:37:17;;;;;;;0.40;0.40;;;11.60;99.90;;;;;;5008847;28;20462;-74
2022/09/14 04:39:43;;;;;;;1.30;1.20;;;11.70;99.90;;;;;;5008239;28;20026;-75
2022/09/14 04:42:08;;;;;;;0.30;0.30;;;11.80;99.90;;;;;;5008663;28;20470;-74
2022/09/14 04:44:34;;;;;;;0.83;0.83;;;11.90;99.90;;;;;;5006691;28;20054;-74
2022/09/14 04:47:00;;;;;;;0.40;0.40;;;11.90;99.90;;;;;;5008556;28;20084;-76
2022/09/14 04:49:25;;;;;;;0.40;0.40;;;11.90;99.90;;;;;;5006759;28;20025;-74
2022/09/14 04:51:51;;;;;;;0.93;0.93;;;11.90;99.90;;;;;;5008269;28;20113;-74
2022/09/14 04:54:17;;;;;;;0.47;0.47;;;12.00;99.90;;;;;;5008198;28;20022;-73
2022/09/14 04:56:43;;;;;;;0.30;0.30;;;12.00;99.90;;;;;;5007957;28;20676;-74
2022/09/14 04:59:10;;;;;;;0.40;0.40;;;12.10;99.90;;;;;;5006903;28;20065;-75
2022/09/14 05:01:37;;;;;;;;;;;12.10;99.90;;;;;;5009057;28;20320;-74
2022/09/14 05:04:04;;;;;;;1.88;1.10;;;12.20;99.90;;;;;;5008255;28;20265;-74
2022/09/14 05:06:32;;;;;;;1.73;1.02;;;12.10;99.90;;;;;;5006819;28;20486;-74
2022/09/14 05:08:59;;;;;;;0.38;0.38;;;12.20;99.90;;;;;;5006848;28;20030;-75
2022/09/14 05:11:28;;;;;;;0.73;0.73;;;12.20;99.90;;;;;;5008175;28;20095;-75
2022/09/14 05:13:55;;;;;;;0.50;0.50;;;12.20;99.90;;;;;;5008346;28;20029;-75
2022/09/14 05:16:22;;;;;;;0.77;0.77;;;12.20;99.90;;;;;;5006638;28;20036;-75
2022/09/14 05:18:49;;;;;;;0.30;0.30;;;12.20;99.90;;;;;;5007932;28;20075;-75
2022/09/14 05:21:16;;;;;;;;;;;12.10;99.90;;;;;;5008403;28;20660;-74
2022/09/14 05:23:42;;;;;;;0.30;0.30;;;12.20;99.90;;;;;;5007909;28;20004;-74
2022/09/14 05:26:08;;;;;;;0.40;0.40;;;11.70;99.90;;;;;;5008041;28;20113;-75
2022/09/14 05:28:35;;;;;;;0.45;0.45;;;12.10;99.90;;;;;;5006962;28;20035;-75
2022/09/14 05:31:08;;;;;;;0.50;0.50;;;12.20;99.90;;;;;;5007727;28;20046;-75
2022/09/14 05:33:34;;;;;;;0.85;0.73;;;12.40;99.90;;;;;;5006657;28;20030;-75
2022/09/14 05:36:07;;;;;;;0.40;0.40;;;12.30;99.90;;;;;;5007597;28;20104;-75
2022/09/14 05:38:35;;;;;;;0.70;0.70;;;12.30;99.90;;;;;;5007527;28;20291;-75
2022/09/14 05:41:01;;;;;;;0.30;0.30;;;12.30;99.90;;;;;;5005674;28;20048;-75
2022/09/14 05:43:28;;;;;;;0.55;0.55;;;12.30;99.90;;;;;;5006971;28;20389;-75
2022/09/14 05:45:53;;;;;;;0.63;0.63;;;12.20;99.90;;;;;;5007315;28;20054;-74
2022/09/14 05:48:19;;;;;;;0.33;0.33;;;12.20;99.90;;;;;;5007575;28;20030;-75
2022/09/14 05:50:45;;;;;;;0.30;0.30;;;12.20;99.90;;;;;;5005941;28;20030;-75
2022/09/14 05:53:11;;;;;;;0.30;0.30;;;12.20;99.90;;;;;;5006316;28;20267;-75
2022/09/14 05:55:36;;;;;;;0.50;0.50;;;12.20;99.90;;;;;;5005996;28;20026;-75
2022/09/14 05:58:03;;;;;;;0.60;0.60;;;12.20;99.90;;;;;;5007621;28;20022;-75
2022/09/14 06:00:30;;;;;;;0.30;0.30;;;12.20;99.90;;;;;;5007301;28;20022;-75
2022/09/14 06:02:55;;;;;;;0.40;0.40;;;12.20;99.90;;;;;;5006975;28;20553;-75
2022/09/14 06:05:21;;;;;;;0.30;0.30;;;12.30;99.90;;;;;;5007072;28;20113;-74
2022/09/14 06:07:51;;;;;;;0.40;0.40;;;12.30;99.90;;;;;;5007024;28;20040;-75
2022/09/14 06:10:17;;;;;;;0.30;0.30;;;12.30;99.90;;;;;;5005610;28;20192;-75
2022/09/14 06:12:43;;;;;;;0.40;0.40;;;12.40;99.90;;;;;;5005979;28;20454;-75
2022/09/14 06:15:09;;;;;;;0.40;0.40;;;12.40;99.90;;;;;;5005926;28;20032;-76
2022/09/14 06:17:36;;;;;;;0.80;0.65;;;12.50;99.90;;;;;;5007540;28;20030;-76
2022/09/14 06:20:02;;;;;;;0.40;0.40;;;12.50;99.90;;;;;;5005917;28;20038;-75
2022/09/14 06:22:29;;;;;;;1.27;1.17;;;12.40;99.90;;;;;;5007496;28;20117;-74
2022/09/14 06:24:55;;;;;;;0.35;0.35;;;12.50;99.90;;;;;;5007235;28;20038;-75
2022/09/14 06:27:20;;;;;;;0.40;0.40;;;12.50;99.90;;;;;;5007487;28;20207;-74
2022/09/14 06:29:50;;;;;;;0.80;0.80;;;12.60;99.90;;;;;;5007196;28;20078;-75
2022/09/14 06:32:17;;;;;;;0.43;0.43;;;12.50;99.90;;;;;;5007087;28;20114;-74
2022/09/14 06:34:42;;;;;;;0.40;0.40;;;12.60;99.90;;;;;;5005444;28;20461;-75
2022/09/14 06:37:08;;;;;;;0.93;0.93;;;12.60;99.90;;;;;;5006935;28;20113;-76
2022/09/14 06:39:33;;;;;;;0.97;0.97;;;12.60;99.90;;;;;;5005773;28;20030;-76
2022/09/14 06:41:59;;;;;;;0.43;0.43;;;12.60;99.90;;;;;;5005408;28;20129;-75
2022/09/14 06:44:25;;;;;;;0.60;0.60;;;12.60;99.90;;;;;;5005320;28;20273;-75
2022/09/14 06:46:50;;;;;;;0.63;0.63;;;12.60;99.90;;;;;;5005848;28;20563;-75
2022/09/14 06:49:19;;;;;;;0.40;0.40;;;12.60;99.90;;;;;;5006601;28;20389;-75
2022/09/14 06:51:46;;;;;;;0.57;0.57;;;13.10;99.90;;;;;;5005220;28;20030;-75
2022/09/14 06:54:12;;;;;;;;;;;12.80;99.90;;;;;;5009586;28;20032;-76
2022/09/14 06:56:40;;;;;;;1.33;1.17;;;13.00;99.90;;;;;;5010264;28;19917;-74
2022/09/14 06:59:07;;;;;;;1.05;0.98;;;13.10;99.90;;;;;;5009762;28;20026;-75
2022/09/14 07:01:33;;;;;;;0.68;0.57;;;13.20;99.90;;;;;;5010062;28;20040;-75
2022/09/14 07:04:00;;;;;;;0.87;0.87;;;13.30;99.90;;;;;;5009985;28;20041;-74
2022/09/14 07:06:27;;;;;;;;;;;13.50;99.90;;;;;;5010353;28;20075;-75
2022/09/14 07:08:53;;;;;;;1.45;1.35;;;13.60;99.90;;;;;;5009624;28;20012;-77
2022/09/14 07:11:22;;;;;;;0.30;0.30;;;13.70;99.90;;;;;;5009950;28;20109;-76
2022/09/14 07:13:47;;;;;;;0.60;0.60;;;13.80;99.90;;;;;;5008694;28;20484;-75
2022/09/14 07:16:14;;;;;;;0.40;0.40;;;14.00;99.90;;;;;;5010064;28;20033;-77
2022/09/14 07:18:40;;;;;;;1.10;1.00;;;14.00;99.90;;;;;;5009640;28;20049;-76
2022/09/14 07:21:12;;;;;;;1.20;1.10;;;14.00;99.90;;;;;;5009825;28;20511;-75
2022/09/14 07:23:40;;;;;;;1.65;1.55;;;14.00;99.90;;;;;;5009876;28;20038;-76
2022/09/14 07:26:11;;;;;;;0.30;0.30;;;14.10;99.90;;;;;;5009949;28;20037;-76
2022/09/14 07:28:38;;;;;;;0.95;0.95;;;14.10;99.90;;;;;;5009324;28;20037;-70
2022/09/14 07:31:12;;;;;;;0.85;0.85;;;14.30;99.90;;;;;;5009346;28;20065;-69
2022/09/14 07:33:38;;;;;;;0.30;0.30;;;14.50;99.90;;;;;;5009331;28;20037;-69
2022/09/14 07:36:06;;;;;;;0.93;0.93;;;14.60;99.90;;;;;;5007736;28;20086;-70
2022/09/14 07:38:31;;;;;;;0.77;0.77;;;14.70;99.90;;;;;;5009158;28;20478;-68
2022/09/14 07:40:57;;;;;;;1.13;1.03;;;14.80;99.90;;;;;;5009296;28;20049;-69
2022/09/14 07:43:23;;;;;;;0.40;0.40;;;14.90;99.90;;;;;;5009595;28;20624;-69
2022/09/14 07:45:48;;;;;;;3.03;0.80;;;15.10;99.90;;;;;;5008762;28;20050;-68
2022/09/14 07:48:14;;;;;;;0.50;0.50;;;15.20;99.90;;;;;;5009134;28;20086;-70
2022/09/14 07:50:40;;;;;;;0.30;0.30;;;15.20;99.90;;;;;;5008696;28;20144;-69
2022/09/14 07:53:05;;;;;;;0.50;0.50;;;15.20;99.90;;;;;;5009892;28;20034;-69
2022/09/14 07:55:31;;;;;;;0.50;0.50;;;15.30;99.90;;;;;;5010007;28;20036;-66
2022/09/14 07:57:57;;;;;;;0.60;0.60;;;15.50;99.90;;;;;;4984317;28;20030;-67
2022/09/14 08:00:23;;;;;;;0.40;0.40;;;15.40;99.90;;;;;;4988066;28;20109;-66
2022/09/14 08:02:56;;;;;;;0.37;0.37;;;15.30;99.90;;;;;;4971320;28;20043;-67
2022/09/14 08:05:22;;;;;;;0.38;0.38;;;15.50;99.90;;;;;;4969946;28;20352;-66
2022/09/14 08:07:53;;;;;;;1.83;1.73;;;15.50;99.90;;;;;;4969540;28;20165;-66
2022/09/14 08:10:18;;;;;;;0.30;0.30;;;17.00;99.90;;;;;;4970343;28;20041;-65
2022/09/14 08:12:44;;;;;;;0.40;0.40;;;15.50;99.90;;;;;;4971082;28;20121;-67
2022/09/14 08:15:10;;;;;;;1.33;1.23;;;15.70;99.90;;;;;;4982407;28;20031;-69
2022/09/14 08:17:35;;;;;;;0.40;0.40;;;15.70;99.90;;;;;;4972010;28;20039;-69
2022/09/14 08:20:01;;;;;;;1.20;1.13;;;15.80;99.90;;;;;;4970608;28;20042;-69
2022/09/14 08:22:27;;;;;;;0.40;0.40;;;15.80;99.90;;;;;;4982140;28;20033;-69
2022/09/14 08:24:52;;;;;;;0.30;0.30;;;15.90;99.90;;;;;;4979998;28;20038;-69
2022/09/14 08:27:18;;;;;;;0.93;0.93;;;15.90;99.90;;;;;;4989835;28;20027;-68
2022/09/14 08:29:43;;;;;;;0.47;0.47;;;15.90;99.90;;;;;;4987225;28;20121;-69
2022/09/14 08:32:11;;;;;;;0.40;0.40;;;15.90;99.90;;;;;;4978977;28;20063;-70
2022/09/14 08:34:37;;;;;;;0.50;0.50;;;15.80;99.90;;;;;;4977919;28;20473;-67
2022/09/14 08:37:02;;;;;;;1.50;1.17;;;15.80;99.90;;;;;;4980820;28;20035;-69
2022/09/14 08:39:28;;;;;;;1.30;0.77;;;16.00;99.90;;;;;;4989122;28;20430;-68
2022/09/14 08:41:56;;;;;;;0.30;0.30;;;16.40;99.90;;;;;;4977437;28;20388;-70
2022/09/14 08:44:49;;;;;;;0.50;0.50;;;16.70;99.90;;;;;;4987340;28;20117;-68
2022/09/14 08:47:33;;;;;;;0.55;0.55;;;16.70;99.90;;;;;;4989066;28;20046;-67
2022/09/14 08:50:17;;;;;;;0.32;0.32;;;16.70;99.90;;;;;;5011106;28;20726;-67
2022/09/14 08:52:47;;;;;;;0.50;0.50;;;16.90;99.90;;;;;;4988719;28;20377;-67
2022/09/14 08:55:16;;;;;;;0.60;0.60;;;17.00;99.90;;;;;;4988873;28;20588;-66
2022/09/14 08:57:44;;;;;;;0.95;0.60;;;17.00;99.90;;;;;;4985838;28;20389;-66
2022/09/14 09:00:16;;;;;;;0.20;0.20;;;16.80;99.90;;;;;;5000241;28;20039;-66
2022/09/14 09:03:19;;;;;;;0.40;0.40;;;16.80;99.90;;;;;;4980456;28;20034;-66
2022/09/14 09:05:52;;;;;;;0.50;0.50;;;16.70;99.90;;;;;;4996239;28;20061;-66
2022/09/14 09:08:46;;;;;;;15.32;1.95;;;16.70;99.90;;;;;;4990718;28;20034;-66
2022/09/14 09:11:17;;;;;;;0.70;0.70;;;16.40;99.90;;;;;;4978861;28;20355;-65
2022/09/14 09:13:45;;;;;;;0.40;0.40;;;16.40;99.90;;;;;;4985269;28;20037;-67
2022/09/14 09:16:15;;;;;;;0.77;0.77;;;16.30;99.90;;;;;;4983094;28;20035;-67
2022/09/14 09:18:52;;;;;;;0.47;0.47;;;16.20;99.90;;;;;;4985834;28;20027;-66
2022/09/14 09:21:17;;;;;;;0.52;0.52;;;16.30;99.90;;;;;;4994670;28;20030;-66
2022/09/14 09:23:43;;;;;;;1.30;0.67;;;16.20;99.90;;;;;;5004224;28;20029;-66
2022/09/14 09:26:24;;;;;;;0.30;0.30;;;16.20;99.90;;;;;;4982795;28;20787;-66
2022/09/14 09:28:53;;;;;;;1.88;1.15;;;16.00;99.90;;;;;;4972595;28;20095;-67
2022/09/14 09:31:37;;;;;;;0.57;0.57;;;16.00;99.90;;;;;;4974478;28;20046;-67
2022/09/14 09:34:03;;;;;;;0.30;0.30;;;16.00;99.90;;;;;;4969029;28;20087;-67
2022/09/14 09:36:41;;;;;;;0.40;0.40;;;15.90;99.90;;;;;;4971209;28;20038;-67
2022/09/14 09:39:07;;;;;;;0.38;0.38;;;15.80;99.90;;;;;;4967875;28;20344;-69
2022/09/14 09:41:55;;;;;;;0.75;0.75;;;15.80;99.90;;;;;;4967119;28;20130;-69
2022/09/14 09:44:21;;;;;;;0.70;0.70;;;15.80;99.90;;;;;;4977554;28;20053;-68
2022/09/14 09:46:54;;;;;;;0.30;0.30;;;15.80;99.90;;;;;;4971973;28;20042;-69
2022/09/14 09:49:21;;;;;;;0.73;0.73;;;15.70;99.90;;;;;;4988011;28;20381;-70
2022/09/14 09:51:48;;;;;;;0.70;0.70;;;15.60;99.90;;;;;;4976927;28;20109;-71
2022/09/14 09:54:14;;;;;;;;;;;15.70;99.90;;;;;;4973476;28;20506;-67
2022/09/14 09:56:49;;;;;;;0.63;0.60;;;15.50;99.90;;;;;;4981437;28;19914;-69
2022/09/14 09:59:43;;;;;;;0.50;0.50;;;15.50;99.90;;;;;;4974208;28;20512;-70
2022/09/14 10:02:41;;;;;;;0.57;0.57;;;15.50;99.90;;;;;;4976142;28;20489;-69
2022/09/14 10:05:09;;;;;;;1.40;1.30;;;15.40;99.90;;;;;;5049153;28;20046;-70
2022/09/14 10:07:59;;;;;;;0.57;0.57;;;15.40;99.90;;;;;;4970281;28;20038;-68
2022/09/14 10:10:34;;;;;;;0.40;0.40;;;15.40;99.90;;;;;;4971828;28;20110;-67
2022/09/14 10:13:02;;;;;;;0.43;0.43;;;15.40;99.90;;;;;;4981490;28;20035;-67
2022/09/14 10:15:30;;;;;;;0.30;0.30;;;15.30;99.90;;;;;;4976772;28;20031;-67
2022/09/14 10:18:06;;;;;;;0.47;0.47;;;15.40;99.90;;;;;;4984419;28;20463;-66
2022/09/14 10:20:32;;;;;;;0.60;0.60;;;15.40;99.90;;;;;;5005641;28;20041;-66
2022/09/14 10:23:14;;;;;;;0.40;0.40;;;15.50;99.90;;;;;;4996709;28;20035;-67
2022/09/14 10:25:39;;;;;;;0.50;0.50;;;15.40;99.90;;;;;;4977709;28;20034;-66
2022/09/14 10:28:25;;;;;;;0.63;0.63;;;15.30;99.90;;;;;;4974285;28;20035;-69
2022/09/14 10:30:54;;;;;;;0.60;0.60;;;15.30;99.90;;;;;;4977657;28;20479;-66
2022/09/14 10:33:20;;;;;;;0.50;0.50;;;15.30;99.90;;;;;;4971468;28;20027;-66
2022/09/14 10:36:11;;;;;;;0.40;0.40;;;15.20;99.90;;;;;;4972154;28;20031;-67
2022/09/14 10:38:43;;;;;;;0.77;0.77;;;15.20;99.90;;;;;;4991278;28;20030;-68
2022/09/14 10:41:09;;;;;;;0.57;0.57;;;15.20;99.90;;;;;;4990719;28;20043;-68
2022/09/14 10:43:47;;;;;;;0.43;0.43;;;15.20;99.90;;;;;;4990895;28;20335;-67
2022/09/14 10:46:20;;;;;;;0.63;0.63;;;15.20;99.90;;;;;;4978775;28;20538;-67
2022/09/14 10:49:22;;;;;;;0.35;0.35;;;15.10;99.90;;;;;;4990976;28;20334;-68
2022/09/14 10:52:00;;;;;;;0.63;0.63;;;15.20;99.90;;;;;;4990811;28;20030;-67
2022/09/14 10:54:31;;;;;;;0.30;0.30;;;15.20;99.90;;;;;;4988318;28;20496;-68
2022/09/14 10:57:18;;;;;;;0.75;0.75;;;15.20;99.90;;;;;;4990383;28;20417;-69
2022/09/14 10:59:47;;;;;;;0.35;0.35;;;15.20;99.90;;;;;;4990729;28;20524;-67
2022/09/14 11:02:23;;;;;;;0.28;0.28;;;15.10;99.90;;;;;;4975976;28;20466;-67
2022/09/14 11:05:34;;;;;;;0.93;0.93;;;15.20;99.90;;;;;;4977267;28;20025;-67
2022/09/14 11:08:17;;;;;;;1.02;1.02;;;15.10;99.90;;;;;;4978416;28;20558;-68
2022/09/14 11:11:11;;;;;;;0.30;0.30;;;15.00;99.90;;;;;;4971534;28;20026;-67
2022/09/14 11:14:15;;;;;;;0.32;0.32;;;15.10;99.90;;;;;;4982329;28;20363;-68
2022/09/14 11:17:07;;;;;;;6.60;6.05;;;15.20;99.90;;;;;;4990545;28;20496;-69
2022/09/14 11:20:10;;;;;;;0.40;0.40;;;15.20;99.90;;;;;;5051036;28;20717;-67
2022/09/14 11:22:57;;;;;;;0.90;0.90;;;15.30;99.90;;;;;;4990508;28;20035;-67
2022/09/14 11:25:55;;;;;;;0.30;0.30;;;15.40;99.90;;;;;;4972082;28;20031;-66
2022/09/14 11:28:29;;;;;;;0.63;0.63;;;15.40;99.90;;;;;;5010306;28;20038;-67
2022/09/14 11:31:13;;;;;;;1.20;1.10;;;15.40;99.90;;;;;;4976308;28;20149;-68
2022/09/14 11:34:02;;;;;;;0.90;0.85;;;15.40;99.90;;;;;;4982050;28;20038;-68
2022/09/14 11:36:36;;;;;;;0.38;0.38;;;15.50;99.90;;;;;;4985307;28;20557;-67
2022/09/14 11:39:20;;;;;;;1.40;1.30;;;15.50;99.90;;;;;;4973381;28;20047;-70
2022/09/14 11:42:19;;;;;;;1.55;1.45;;;15.50;99.90;;;;;;4984370;28;20062;-68
2022/09/14 11:44:48;;;;;;;0.60;0.60;;;15.60;99.90;;;;;;4981982;28;20393;-68
2022/09/14 11:47:18;;;;;;;1.05;1.02;;;15.60;99.90;;;;;;4982735;28;20122;-68
2022/09/14 11:49:54;;;;;;;0.93;0.90;;;15.60;99.90;;;;;;4969860;28;20050;-68
2022/09/14 11:52:22;;;;;;;0.57;0.57;;;15.60;99.90;;;;;;4972230;28;20034;-70
2022/09/14 11:54:49;;;;;;;0.50;0.50;;;15.60;99.90;;;;;;4975341;28;20022;-67
2022/09/14 11:57:33;;;;;;;0.63;0.63;;;15.50;99.90;;;;;;4983841;28;20468;-68
2022/09/14 12:00:05;;;;;;;0.63;0.63;;;15.60;99.90;;;;;;4989432;28;20103;-70
2022/09/14 12:02:31;;;;;;;1.23;0.85;;;15.60;99.90;;;;;;4982841;28;20038;-68
2022/09/14 12:05:09;;;;;;;0.50;0.50;;;15.60;99.90;;;;;;4978822;28;20034;-68
2022/09/14 12:07:46;;;;;;;0.50;0.50;;;15.60;99.90;;;;;;4978576;28;20585;-66
2022/09/14 12:10:14;;;;;;;0.63;0.63;;;15.60;99.90;;;;;;4980938;28;20133;-66
2022/09/14 12:12:43;;;;;;;2.25;2.00;;;15.60;99.90;;;;;;4981132;28;20038;-70
2022/09/14 12:15:24;;;;;;;0.35;0.35;;;15.60;99.90;;;;;;4979173;28;20046;-69
2022/09/14 12:18:09;;;;;;;0.70;0.70;;;15.70;99.90;;;;;;4971731;28;20035;-69
2022/09/14 12:21:08;;;;;;;2.47;1.50;;;15.70;99.90;;;;;;4985751;28;20045;-70
2022/09/14 12:23:36;;;;;;;0.60;0.60;;;15.60;99.90;;;;;;5007971;28;20121;-70
2022/09/14 12:26:05;;;;;;;0.70;0.70;;;15.60;99.90;;;;;;4970401;28;20047;-68
2022/09/14 12:28:33;;;;;;;0.30;0.30;;;15.50;99.90;;;;;;4976766;28;20042;-68
2022/09/14 12:30:59;;;;;;;0.98;0.98;;;15.40;99.90;;;;;;4985179;28;20043;-70
2022/09/14 12:34:03;;;;;;;1.87;0.77;;;15.30;99.90;;;;;;4978593;28;20096;-71
2022/09/14 12:36:32;;;;;;;1.42;1.33;;;15.40;99.90;;;;;;4986847;28;20026;-69
2022/09/14 12:38:57;;;;;;;0.55;0.55;;;15.50;99.90;;;;;;4980748;28;20023;-70
2022/09/14 12:41:23;;;;;;;0.47;0.47;;;15.30;99.90;;;;;;4980717;28;20050;-65
2022/09/14 12:43:49;;;;;;;0.43;0.43;;;15.40;99.90;;;;;;4969303;28;20449;-65
2022/09/14 12:46:20;;;;;;;0.43;0.43;;;15.50;99.90;;;;;;4975699;28;20045;-64
2022/09/14 12:48:46;;;;;;;1.83;1.58;;;15.50;99.90;;;;;;4973544;28;20483;-66
2022/09/14 12:51:21;;;;;;;2.00;1.13;;;15.60;99.90;;;;;;4969186;28;20041;-69
2022/09/14 12:53:56;;;;;;;0.50;0.50;;;15.60;99.90;;;;;;4970517;28;20030;-70
2022/09/14 12:56:43;;;;;;;0.52;0.52;;;15.60;99.90;;;;;;4982609;28;20348;-70
2022/09/14 12:59:36;;;;;;;1.23;1.10;;;15.60;99.90;;;;;;4970858;28;20127;-72
2022/09/14 13:02:17;;;;;;;0.68;0.63;;;15.70;99.90;;;;;;4980239;28;20498;-66
2022/09/14 13:04:44;;;;;;;1.40;1.15;;;15.60;99.90;;;;;;4978704;28;20363;-67
2022/09/14 13:07:16;;;;;;;2.40;0.98;;;15.70;99.90;;;;;;4981781;28;20039;-68
2022/09/14 13:09:56;;;;;;;0.95;0.95;;;15.70;99.90;;;;;;4977626;28;20088;-67
2022/09/14 13:12:37;;;;;;;1.45;1.25;;;15.80;99.90;;;;;;4978417;28;20023;-66